createdAt,value
2018-06-01T00:00:17.501Z,18.98
2018-06-01T00:02:46.390Z,19.02
2018-06-01T00:05:15.590Z,18.92
2018-06-01T00:07:44.482Z,18.81
2018-06-01T00:10:13.367Z,18.76
2018-06-01T00:12:42.368Z,18.75
2018-06-01T00:15:11.387Z,18.69
2018-06-01T00:17:40.140Z,18.58
2018-06-01T00:20:09.341Z,18.62
2018-06-01T00:22:38.537Z,18.60
2018-06-01T00:25:07.499Z,18.61
2018-06-01T00:27:36.517Z,18.59
2018-06-01T00:30:05.614Z,18.58
2018-06-01T00:32:34.836Z,18.48
2018-06-01T00:35:03.805Z,18.53
2018-06-01T00:37:32.777Z,18.53
2018-06-01T00:40:01.892Z,18.53
2018-06-01T00:42:30.883Z,18.58
2018-06-01T00:44:59.771Z,18.67
2018-06-01T00:47:28.741Z,18.60
2018-06-01T00:49:57.764Z,18.59
2018-06-01T00:52:26.898Z,18.58
2018-06-01T00:55:07.721Z,18.62
2018-06-01T00:57:36.728Z,18.50
2018-06-01T01:00:05.602Z,18.46
2018-06-01T01:02:34.521Z,18.29
2018-06-01T01:05:03.760Z,18.21
2018-06-01T01:07:32.886Z,18.21
2018-06-01T01:10:01.983Z,18.18
2018-06-01T01:12:30.874Z,18.17
2018-06-01T01:14:59.762Z,18.21
2018-06-01T01:17:28.752Z,18.14
2018-06-01T01:19:58.107Z,18.06
2018-06-01T01:22:27.127Z,18.07
2018-06-01T01:24:56.066Z,18.04
2018-06-01T01:27:25.235Z,17.97
2018-06-01T01:29:54.329Z,18.01
2018-06-01T01:32:23.323Z,17.89
2018-06-01T01:34:52.085Z,17.96
2018-06-01T01:37:35.031Z,17.99
2018-06-01T01:40:03.918Z,17.90
2018-06-01T01:42:32.864Z,18.00
2018-06-01T01:45:01.797Z,17.98
2018-06-01T01:47:31.011Z,18.02
2018-06-01T01:50:00.193Z,17.99
2018-06-01T01:52:29.194Z,17.96
2018-06-01T01:54:58.180Z,17.99
2018-06-01T01:57:27.180Z,17.96
2018-06-01T01:59:56.861Z,17.94
2018-06-01T02:02:25.666Z,17.95
2018-06-01T02:04:54.582Z,17.99
2018-06-01T02:07:23.704Z,17.97
2018-06-01T02:09:52.539Z,17.91
2018-06-01T02:12:21.635Z,17.95
2018-06-01T02:14:50.625Z,17.96
2018-06-01T02:17:20.438Z,17.96
2018-06-01T02:20:06.750Z,17.91
2018-06-01T02:22:41.667Z,17.84
2018-06-01T02:25:10.721Z,17.83
2018-06-01T02:27:39.551Z,17.78
2018-06-01T02:30:08.340Z,17.72
2018-06-01T02:32:37.125Z,17.63
2018-06-01T02:35:06.028Z,17.59
2018-06-01T02:37:34.882Z,17.61
2018-06-01T02:40:03.972Z,17.72
2018-06-01T02:42:32.787Z,17.57
2018-06-01T02:45:01.756Z,17.52
2018-06-01T02:47:31.078Z,17.55
2018-06-01T02:49:59.968Z,17.50
2018-06-01T02:52:29.165Z,17.40
2018-06-01T02:54:57.861Z,17.51
2018-06-01T02:57:26.842Z,17.48
2018-06-01T02:59:55.734Z,17.64
2018-06-01T03:02:24.435Z,17.45
2018-06-01T03:04:53.466Z,17.54
2018-06-01T03:07:22.401Z,17.39
2018-06-01T03:09:51.527Z,17.36
2018-06-01T03:12:20.815Z,17.32
2018-06-01T03:14:49.788Z,17.27
2018-06-01T03:17:18.785Z,17.25
2018-06-01T03:19:47.586Z,17.38
2018-06-01T03:22:16.356Z,17.58
2018-06-01T03:24:45.451Z,17.92
2018-06-01T03:27:14.338Z,18.15
2018-06-01T03:29:43.513Z,18.52
2018-06-01T03:32:12.550Z,18.70
2018-06-01T03:34:41.495Z,19.01
2018-06-01T03:37:10.310Z,19.38
2018-06-01T03:39:39.406Z,19.65
2018-06-01T03:42:08.395Z,19.95
2018-06-01T03:44:37.499Z,20.20
2018-06-01T03:47:06.278Z,20.45
2018-06-01T03:49:35.072Z,20.59
2018-06-01T03:52:04.160Z,20.83
2018-06-01T03:54:33.256Z,21.34
2018-06-01T03:57:02.344Z,21.56
2018-06-01T03:59:31.140Z,21.91
2018-06-01T04:02:00.080Z,22.13
2018-06-01T04:04:28.915Z,22.39
2018-06-01T04:06:57.876Z,22.81
2018-06-01T04:09:28.642Z,22.60
2018-06-01T04:11:57.754Z,22.98
2018-06-01T04:14:26.733Z,23.07
2018-06-01T04:16:55.721Z,23.65
2018-06-01T04:19:24.975Z,24.16
2018-06-01T04:21:54.012Z,24.63
2018-06-01T04:24:23.012Z,24.67
2018-06-01T04:26:51.898Z,24.85
2018-06-01T04:29:21.169Z,25.08
2018-06-01T04:31:49.982Z,25.58
2018-06-01T04:34:18.877Z,26.02
2018-06-01T04:36:47.693Z,26.08
2018-06-01T04:39:16.958Z,26.08
2018-06-01T04:41:45.701Z,25.93
2018-06-01T04:44:14.641Z,25.97
2018-06-01T04:46:43.588Z,26.44
2018-06-01T04:49:12.659Z,26.45
2018-06-01T04:51:42.739Z,26.89
2018-06-01T04:54:11.887Z,26.71
2018-06-01T04:56:40.942Z,26.85
2018-06-01T04:59:09.713Z,26.85
2018-06-01T05:01:38.695Z,27.03
2018-06-01T05:04:07.494Z,27.00
2018-06-01T05:06:36.447Z,26.95
2018-06-01T05:09:06.465Z,27.51
2018-06-01T05:11:35.291Z,27.21
2018-06-01T05:14:04.488Z,27.19
2018-06-01T05:16:33.828Z,28.36
2018-06-01T05:19:02.898Z,28.23
2018-06-01T05:21:31.884Z,28.74
2018-06-01T05:24:01.070Z,28.36
2018-06-01T05:26:30.069Z,28.29
2018-06-01T05:28:58.959Z,28.25
2018-06-01T05:31:28.154Z,28.18
2018-06-01T05:33:57.058Z,27.98
2018-06-01T05:36:25.949Z,29.01
2018-06-01T05:38:54.894Z,29.45
2018-06-01T05:41:23.812Z,28.97
2018-06-01T05:43:52.700Z,29.63
2018-06-01T05:46:21.694Z,30.33
2018-06-01T05:48:51.063Z,30.58
2018-06-01T05:51:21.118Z,31.57
2018-06-01T05:53:50.270Z,30.48
2018-06-01T05:56:19.504Z,30.11
2018-06-01T05:58:48.498Z,30.42
2018-06-01T06:01:17.501Z,30.18
2018-06-01T06:03:46.174Z,30.26
2018-06-01T06:06:15.372Z,30.69
2018-06-01T06:08:44.348Z,30.40
2018-06-01T06:11:13.150Z,30.12
2018-06-01T06:13:42.307Z,30.43
2018-06-01T06:16:11.443Z,30.73
2018-06-01T06:18:40.434Z,31.08
2018-06-01T06:21:09.643Z,31.72
2018-06-01T06:23:38.421Z,31.21
2018-06-01T06:26:07.411Z,30.94
2018-06-01T06:28:36.608Z,31.15
2018-06-01T06:31:05.499Z,31.06
2018-06-01T06:33:34.798Z,31.12
2018-06-01T06:36:03.861Z,31.97
2018-06-01T06:38:32.699Z,31.97
2018-06-01T06:41:02.545Z,30.64
2018-06-01T06:43:31.496Z,30.53
2018-06-01T06:46:00.481Z,30.68
2018-06-01T06:48:29.364Z,31.05
2018-06-01T06:50:59.089Z,32.04
2018-06-01T06:53:28.488Z,32.96
2018-06-01T06:55:57.883Z,32.58
2018-06-01T06:58:27.133Z,32.27
2018-06-01T07:00:56.168Z,32.91
2018-06-01T07:03:24.967Z,33.52
2018-06-01T07:05:54.051Z,33.00
2018-06-01T07:08:23.046Z,33.79
2018-06-01T07:10:51.933Z,33.10
2018-06-01T07:13:20.795Z,32.75
2018-06-01T07:15:50.020Z,33.53
2018-06-01T07:18:19.217Z,33.74
2018-06-01T07:20:48.211Z,33.27
2018-06-01T07:23:17.206Z,33.21
2018-06-01T07:25:46.195Z,34.91
2018-06-01T07:28:15.188Z,33.20
2018-06-01T07:30:44.282Z,34.25
2018-06-01T07:33:13.282Z,34.46
2018-06-01T07:35:42.096Z,33.22
2018-06-01T07:38:10.814Z,34.10
2018-06-01T07:40:39.829Z,33.20
2018-06-01T07:43:09.652Z,35.01
2018-06-01T07:45:38.644Z,34.91
2018-06-01T07:48:07.432Z,33.94
2018-06-01T07:50:36.526Z,33.74
2018-06-01T07:53:05.417Z,33.90
2018-06-01T07:55:34.316Z,34.03
2018-06-01T07:58:03.199Z,33.94
2018-06-01T08:00:32.394Z,34.80
2018-06-01T08:03:01.594Z,33.34
2018-06-01T08:05:31.005Z,34.91
2018-06-01T08:08:00.085Z,33.73
2018-06-01T08:10:28.873Z,35.30
2018-06-01T08:12:57.970Z,34.45
2018-06-01T08:15:26.652Z,36.15
2018-06-01T08:17:55.545Z,34.27
2018-06-01T08:20:24.484Z,35.08
2018-06-01T08:22:53.426Z,34.87
2018-06-01T08:25:22.313Z,35.33
2018-06-01T08:27:51.107Z,34.47
2018-06-01T08:30:20.004Z,35.15
2018-06-01T08:32:49.199Z,34.09
2018-06-01T08:35:18.155Z,34.49
2018-06-01T08:37:47.345Z,34.87
2018-06-01T08:40:16.918Z,35.16
2018-06-01T08:42:46.692Z,35.71
2018-06-01T08:45:15.686Z,36.21
2018-06-01T08:47:44.882Z,35.51
2018-06-01T08:50:14.081Z,35.58
2018-06-01T08:52:42.969Z,37.08
2018-06-01T08:55:11.761Z,36.19
2018-06-01T08:57:40.646Z,35.54
2018-06-01T09:00:09.536Z,36.76
2018-06-01T09:02:38.528Z,36.47
2018-06-01T09:05:07.624Z,36.68
2018-06-01T09:07:36.409Z,36.57
2018-06-01T09:10:05.636Z,35.52
2018-06-01T09:12:34.860Z,36.00
2018-06-01T09:15:04.111Z,36.48
2018-06-01T09:17:33.302Z,37.11
2018-06-01T09:20:02.190Z,37.08
2018-06-01T09:22:31.185Z,36.14
2018-06-01T09:24:59.971Z,37.46
2018-06-01T09:27:29.169Z,36.52
2018-06-01T09:29:58.365Z,36.12
2018-06-01T09:32:27.264Z,37.44
2018-06-01T09:34:57.464Z,36.86
2018-06-01T09:37:26.556Z,37.47
2018-06-01T09:39:55.525Z,37.09
2018-06-01T09:42:24.350Z,36.43
2018-06-01T09:44:53.138Z,37.71
2018-06-01T09:47:22.142Z,38.19
2018-06-01T09:49:50.930Z,38.50
2018-06-01T09:52:19.806Z,36.07
2018-06-01T09:54:48.798Z,37.80
2018-06-01T09:57:17.789Z,37.53
2018-06-01T09:59:46.576Z,36.87
2018-06-01T10:02:15.527Z,36.88
2018-06-01T10:04:44.461Z,37.34
2018-06-01T10:07:14.270Z,37.01
2018-06-01T10:09:43.363Z,38.30
2018-06-01T10:12:12.359Z,38.40
2018-06-01T10:14:41.248Z,38.38
2018-06-01T10:17:10.599Z,37.05
2018-06-01T10:19:39.756Z,37.86
2018-06-01T10:22:08.842Z,37.61
2018-06-01T10:24:37.732Z,38.16
2018-06-01T10:27:06.617Z,37.72
2018-06-01T10:29:35.927Z,38.21
2018-06-01T10:32:05.426Z,37.32
2018-06-01T10:34:34.529Z,37.83
2018-06-01T10:37:03.320Z,37.36
2018-06-01T10:39:32.114Z,36.24
2018-06-01T10:42:01.091Z,36.65
2018-06-01T10:44:30.406Z,37.33
2018-06-01T10:46:59.375Z,37.84
2018-06-01T10:49:28.473Z,37.21
2018-06-01T10:51:57.373Z,37.04
2018-06-01T10:54:26.361Z,37.26
2018-06-01T10:56:55.343Z,36.79
2018-06-01T10:59:24.348Z,38.11
2018-06-01T11:01:53.353Z,38.36
2018-06-01T11:04:22.277Z,38.14
2018-06-01T11:06:51.210Z,37.87
2018-06-01T11:09:20.002Z,38.01
2018-06-01T11:11:48.887Z,38.02
2018-06-01T11:14:17.880Z,38.27
2018-06-01T11:16:46.775Z,38.10
2018-06-01T11:19:15.457Z,37.29
2018-06-01T11:21:44.650Z,36.44
2018-06-01T11:24:13.951Z,35.12
2018-06-01T11:26:42.944Z,35.66
2018-06-01T11:29:11.898Z,34.29
2018-06-01T11:31:41.139Z,33.76
2018-06-01T11:34:10.124Z,32.62
2018-06-01T11:36:39.322Z,32.21
2018-06-01T11:39:08.493Z,31.70
2018-06-01T11:41:37.717Z,31.53
2018-06-01T11:44:06.575Z,31.66
2018-06-01T11:46:35.597Z,31.75
2018-06-01T11:49:04.493Z,31.70
2018-06-01T11:51:33.452Z,31.56
2018-06-01T11:54:02.467Z,31.30
2018-06-01T11:56:31.566Z,31.61
2018-06-01T11:59:01.480Z,31.60
2018-06-01T12:01:58.018Z,31.20
2018-06-01T12:04:27.741Z,31.53
2018-06-01T12:06:56.522Z,31.77
2018-06-01T12:09:25.613Z,32.04
2018-06-01T12:11:54.313Z,32.05
2018-06-01T12:14:23.392Z,32.22
2018-06-01T12:16:52.585Z,32.11
2018-06-01T12:19:21.475Z,32.26
2018-06-01T12:21:50.467Z,32.53
2018-06-01T12:24:19.358Z,32.23
2018-06-01T12:26:48.250Z,32.03
2018-06-01T12:29:17.183Z,31.58
2018-06-01T12:31:46.145Z,31.66
2018-06-01T12:34:14.967Z,31.77
2018-06-01T12:36:44.040Z,31.48
2018-06-01T12:39:14.201Z,31.62
2018-06-01T12:41:43.126Z,31.83
2018-06-01T12:44:12.014Z,31.98
2018-06-01T12:46:40.906Z,32.10
2018-06-01T12:49:09.791Z,32.16
2018-06-01T12:51:41.139Z,32.31
2018-06-01T12:54:10.035Z,32.46
2018-06-01T12:56:39.023Z,32.28
2018-06-01T12:59:07.938Z,32.16
2018-06-01T13:01:37.109Z,32.00
2018-06-01T13:04:06.205Z,31.97
2018-06-01T13:06:34.908Z,32.01
2018-06-01T13:09:08.078Z,32.05
2018-06-01T13:11:36.875Z,32.01
2018-06-01T13:14:05.987Z,32.02
2018-06-01T13:16:35.575Z,31.95
2018-06-01T13:19:04.774Z,31.84
2018-06-01T13:21:33.781Z,32.07
2018-06-01T13:24:02.963Z,32.16
2018-06-01T13:26:31.965Z,32.25
2018-06-01T13:29:02.166Z,32.34
2018-06-01T13:31:31.391Z,32.28
2018-06-01T13:34:00.358Z,32.09
2018-06-01T13:36:29.553Z,32.18
2018-06-01T13:38:58.358Z,32.21
2018-06-01T13:41:28.458Z,32.13
2018-06-01T13:43:57.246Z,32.16
2018-06-01T13:46:26.234Z,31.97
2018-06-01T13:48:55.233Z,31.91
2018-06-01T13:51:23.933Z,31.81
2018-06-01T13:53:52.909Z,31.54
2018-06-01T13:56:21.728Z,31.73
2018-06-01T13:58:50.804Z,31.86
2018-06-01T14:01:19.783Z,31.86
2018-06-01T14:03:49.490Z,31.76
2018-06-01T14:06:18.483Z,31.65
2018-06-01T14:08:47.266Z,31.75
2018-06-01T14:11:16.263Z,31.78
2018-06-01T14:13:46.519Z,31.77
2018-06-01T14:16:15.476Z,31.78
2018-06-01T14:18:44.356Z,31.86
2018-06-01T14:21:13.359Z,31.99
2018-06-01T14:23:42.145Z,32.03
2018-06-01T14:26:11.183Z,32.14
2018-06-01T14:28:40.205Z,32.17
2018-06-01T14:31:09.336Z,32.00
2018-06-01T14:33:38.430Z,31.96
2018-06-01T14:36:07.416Z,32.00
2018-06-01T14:38:36.421Z,31.96
2018-06-01T14:41:05.401Z,31.91
2018-06-01T14:43:34.305Z,31.81
2018-06-01T14:46:03.243Z,31.89
2018-06-01T14:48:32.171Z,31.88
2018-06-01T14:51:01.368Z,31.83
2018-06-01T14:53:30.259Z,31.72
2018-06-01T14:55:59.253Z,31.77
2018-06-01T14:58:28.440Z,31.70
2018-06-01T15:00:57.543Z,31.76
2018-06-01T15:03:26.332Z,31.81
2018-06-01T15:05:55.217Z,31.76
2018-06-01T15:08:24.267Z,31.69
2018-06-01T15:10:53.407Z,31.63
2018-06-01T15:13:22.388Z,31.66
2018-06-01T15:15:51.094Z,31.66
2018-06-01T15:18:20.077Z,31.51
2018-06-01T15:20:49.070Z,31.48
2018-06-01T15:23:18.273Z,31.41
2018-06-01T15:25:47.288Z,31.34
2018-06-01T15:28:16.148Z,31.29
2018-06-01T15:30:45.110Z,31.23
2018-06-01T15:33:13.928Z,31.16
2018-06-01T15:35:42.714Z,31.07
2018-06-01T15:38:11.502Z,31.03
2018-06-01T15:40:40.402Z,30.95
2018-06-01T15:43:09.392Z,30.85
2018-06-01T15:45:38.285Z,30.81
2018-06-01T15:48:07.061Z,30.82
2018-06-01T15:50:36.165Z,30.85
2018-06-01T15:53:04.870Z,30.86
2018-06-01T15:55:34.473Z,30.87
2018-06-01T15:58:03.234Z,30.97
2018-06-01T16:00:32.124Z,30.91
2018-06-01T16:03:01.444Z,30.82
2018-06-01T16:05:30.621Z,30.84
2018-06-01T16:07:59.715Z,30.76
2018-06-01T16:10:28.605Z,30.75
2018-06-01T16:12:57.601Z,30.68
2018-06-01T16:15:26.513Z,30.61
2018-06-01T16:17:55.482Z,30.58
2018-06-01T16:20:24.342Z,30.61
2018-06-01T16:22:53.489Z,30.53
2018-06-01T16:25:22.485Z,30.44
2018-06-01T16:27:51.551Z,30.39
2018-06-01T16:30:20.545Z,30.11
2018-06-01T16:32:49.535Z,30.09
2018-06-01T16:35:19.036Z,30.03
2018-06-01T16:37:47.929Z,29.91
2018-06-01T16:40:16.853Z,29.81
2018-06-01T16:42:45.815Z,29.61
2018-06-01T16:45:15.088Z,29.37
2018-06-01T16:47:43.863Z,29.23
2018-06-01T16:50:12.686Z,29.10
2018-06-01T16:52:41.575Z,28.91
2018-06-01T16:55:10.488Z,28.78
2018-06-01T16:57:39.252Z,28.66
2018-06-01T17:00:08.177Z,28.48
2018-06-01T17:02:36.934Z,28.38
2018-06-01T17:05:05.720Z,28.30
2018-06-01T17:07:35.222Z,28.27
2018-06-01T17:10:04.108Z,28.22
2018-06-01T17:12:33.335Z,28.09
2018-06-01T17:15:02.369Z,27.96
2018-06-01T17:17:31.860Z,27.82
2018-06-01T17:20:00.797Z,27.68
2018-06-01T17:22:30.948Z,27.59
2018-06-01T17:25:00.239Z,27.51
2018-06-01T17:27:29.618Z,27.43
2018-06-01T17:29:58.609Z,27.32
2018-06-01T17:32:27.499Z,27.25
2018-06-01T17:34:56.420Z,27.24
2018-06-01T17:37:25.221Z,27.10
2018-06-01T17:39:54.375Z,27.12
2018-06-01T17:42:23.998Z,26.94
2018-06-01T17:44:52.870Z,26.86
2018-06-01T17:47:21.866Z,26.88
2018-06-01T17:49:50.959Z,26.80
2018-06-01T17:52:19.869Z,26.75
2018-06-01T17:54:48.737Z,26.59
2018-06-01T17:57:17.627Z,26.43
2018-06-01T17:59:46.533Z,26.35
2018-06-01T18:02:15.399Z,26.27
2018-06-01T18:04:44.398Z,26.15
2018-06-01T18:07:13.304Z,26.04
2018-06-01T18:09:42.313Z,25.93
2018-06-01T18:12:11.282Z,25.91
2018-06-01T18:14:40.609Z,25.76
2018-06-01T18:17:09.469Z,25.67
2018-06-01T18:19:38.681Z,25.60
2018-06-01T18:22:07.650Z,25.52
2018-06-01T18:24:36.541Z,25.40
2018-06-01T18:27:05.944Z,25.36
2018-06-01T18:29:34.768Z,25.20
2018-06-01T18:32:03.621Z,25.15
2018-06-01T18:34:33.187Z,24.99
2018-06-01T18:37:02.449Z,24.86
2018-06-01T18:39:32.235Z,24.87
2018-06-01T18:42:01.027Z,24.72
2018-06-01T18:44:30.015Z,24.67
2018-06-01T18:46:59.546Z,24.60
2018-06-01T18:49:28.645Z,24.54
2018-06-01T18:51:57.810Z,24.53
2018-06-01T18:54:26.801Z,24.50
2018-06-01T18:56:55.795Z,24.48
2018-06-01T18:59:24.786Z,24.44
2018-06-01T19:01:53.749Z,24.34
2018-06-01T19:04:22.585Z,24.15
2018-06-01T19:06:51.635Z,24.16
2018-06-01T19:09:20.755Z,23.98
2018-06-01T19:11:49.650Z,23.99
2018-06-01T19:14:18.853Z,24.01
2018-06-01T19:16:47.735Z,23.88
2018-06-01T19:19:17.032Z,23.81
2018-06-01T19:21:46.130Z,23.69
2018-06-01T19:24:14.913Z,23.66
2018-06-01T19:26:44.211Z,23.57
2018-06-01T19:29:13.102Z,23.56
2018-06-01T19:31:42.094Z,23.45
2018-06-01T19:34:10.897Z,23.48
2018-06-01T19:36:40.088Z,23.37
2018-06-01T19:39:09.493Z,23.32
2018-06-01T19:41:38.347Z,23.32
2018-06-01T19:44:07.262Z,23.31
2018-06-01T19:46:36.560Z,23.20
2018-06-01T19:49:05.350Z,23.10
2018-06-01T19:51:35.160Z,23.05
2018-06-01T19:54:04.152Z,22.99
2018-06-01T19:56:33.042Z,22.85
2018-06-01T19:59:01.950Z,22.90
2018-06-01T20:01:30.924Z,22.82
2018-06-01T20:03:59.735Z,22.80
2018-06-01T20:06:28.469Z,22.71
2018-06-01T20:08:57.493Z,22.63
2018-06-01T20:11:26.177Z,22.57
2018-06-01T20:13:55.086Z,22.49
2018-06-01T20:16:23.954Z,22.38
2018-06-01T20:18:52.946Z,22.38
2018-06-01T20:21:21.920Z,22.36
2018-06-01T20:23:50.933Z,22.34
2018-06-01T20:26:19.902Z,22.25
2018-06-01T20:28:48.816Z,22.16
2018-06-01T20:31:18.624Z,22.23
2018-06-01T20:33:47.677Z,22.23
2018-06-01T20:36:16.816Z,22.14
2018-06-01T20:38:45.717Z,22.07
2018-06-01T20:41:14.607Z,21.94
2018-06-01T20:43:43.410Z,21.88
2018-06-01T20:46:13.294Z,21.82
2018-06-01T20:48:42.494Z,21.78
2018-06-01T20:51:12.201Z,21.78
2018-06-01T20:53:41.091Z,21.78
2018-06-01T20:56:09.980Z,21.72
2018-06-01T20:58:39.184Z,21.68
2018-06-01T21:01:08.272Z,21.62
2018-06-01T21:03:37.598Z,21.56
2018-06-01T21:06:06.703Z,21.49
2018-06-01T21:08:36.115Z,21.48
2018-06-01T21:11:05.470Z,21.46
2018-06-01T21:13:34.476Z,21.40
2018-06-01T21:16:03.278Z,21.37
2018-06-01T21:18:32.345Z,21.29
2018-06-01T21:21:01.234Z,21.32
2018-06-01T21:23:29.946Z,21.23
2018-06-01T21:25:58.839Z,21.20
2018-06-01T21:28:27.902Z,21.12
2018-06-01T21:30:57.529Z,21.07
2018-06-01T21:33:26.504Z,21.03
2018-06-01T21:35:55.502Z,20.98
2018-06-01T21:38:24.219Z,20.93
2018-06-01T21:40:53.091Z,20.96
2018-06-01T21:43:22.157Z,20.96
2018-06-01T21:45:50.863Z,21.04
2018-06-01T21:48:19.737Z,21.02
2018-06-01T21:50:48.730Z,20.93
2018-06-01T21:53:17.824Z,20.88
2018-06-01T21:55:49.138Z,20.80
2018-06-01T21:58:19.086Z,20.75
2018-06-01T22:00:47.773Z,20.75
2018-06-01T22:03:16.639Z,20.77
2018-06-01T22:05:46.577Z,20.80
2018-06-01T22:08:16.388Z,20.73
2018-06-01T22:10:46.097Z,20.70
2018-06-01T22:13:14.889Z,20.68
2018-06-01T22:15:44.285Z,20.61
2018-06-01T22:18:13.278Z,20.57
2018-06-01T22:20:42.268Z,20.60
2018-06-01T22:23:11.263Z,20.58
2018-06-01T22:25:40.341Z,20.59
2018-06-01T22:28:09.552Z,20.52
2018-06-01T22:30:38.648Z,20.39
2018-06-01T22:33:07.448Z,20.21
2018-06-01T22:35:36.198Z,20.16
2018-06-01T22:38:05.215Z,20.02
2018-06-01T22:40:34.104Z,19.90
2018-06-01T22:43:03.051Z,19.88
2018-06-01T22:45:32.007Z,19.81
2018-06-01T22:48:01.081Z,19.76
2018-06-01T22:50:29.870Z,19.79
2018-06-01T22:52:59.384Z,19.76
2018-06-01T22:55:28.384Z,19.75
2018-06-01T22:57:57.151Z,19.69
2018-06-01T23:00:30.967Z,19.60
2018-06-01T23:02:59.645Z,19.54
2018-06-01T23:05:28.532Z,19.63
2018-06-01T23:07:58.349Z,19.52
2018-06-01T23:10:27.298Z,19.54
2018-06-01T23:12:57.002Z,19.48
2018-06-01T23:15:26.104Z,19.49
2018-06-01T23:17:54.928Z,19.51
2018-06-01T23:20:24.943Z,19.44
2018-06-01T23:22:53.935Z,19.41
2018-06-01T23:25:30.817Z,19.40
2018-06-01T23:28:00.122Z,19.35
2018-06-01T23:30:29.214Z,19.30
2018-06-01T23:32:58.212Z,19.32
2018-06-01T23:35:27.190Z,19.32
2018-06-01T23:37:56.183Z,19.23
2018-06-01T23:40:25.002Z,19.15
2018-06-01T23:42:53.862Z,19.16
2018-06-01T23:45:22.851Z,19.13
2018-06-01T23:47:51.799Z,19.18
2018-06-01T23:50:20.634Z,19.12
2018-06-01T23:52:49.483Z,19.14
2018-06-01T23:55:18.547Z,19.06
2018-06-01T23:57:47.306Z,18.93
